Wetterdaten: aktuell Sonntag, 25.08.2019 18:30
Datum Zeit Lufttemp. Wassertemp. Feuchte Luftdruck Regen Wind Richtung Richtung Windben
25.08.2019 18:30 25,0 C 23,3 C 61 % 1017,1 hPa 0,0 l/m 5,1 kts (2 Bft) N-NO 15 6,3 kts (2 Bft)
25.08.2019 18:29 25,0 C 23,3 C 61 % 1017,1 hPa 0,0 l/m 2,6 kts (1 Bft) N-NO 13 5,2 kts (2 Bft)
25.08.2019 18:28 25,0 C 23,3 C 61 % 1017,1 hPa 0,0 l/m 3,1 kts (2 Bft) N-NO 16 5,2 kts (2 Bft)
25.08.2019 18:27 25,0 C 23,3 C 61 % 1017,1 hPa 0,0 l/m 2,6 kts (1 Bft) N-NO 16 4,2 kts (2 Bft)
25.08.2019 18:26 25,0 C 23,3 C 61 % 1017,1 hPa 0,0 l/m 4,1 kts (2 Bft) N-NO 15 6,3 kts (2 Bft)
25.08.2019 18:25 24,9 C 23,3 C 60 % 1017,1 hPa 0,0 l/m 4,1 kts (2 Bft) N 11 5,2 kts (2 Bft)
25.08.2019 18:24 24,9 C 23,3 C 60 % 1017,1 hPa 0,0 l/m 4,3 kts (2 Bft) N 5 6,3 kts (2 Bft)
25.08.2019 18:23 25,0 C 23,3 C 60 % 1017,1 hPa 0,0 l/m 3,9 kts (2 Bft) N 9 5,2 kts (2 Bft)
25.08.2019 18:22 25,0 C 23,3 C 61 % 1017,1 hPa 0,0 l/m 3,5 kts (2 Bft) N 360 5,2 kts (2 Bft)
25.08.2019 18:21 25,0 C 23,3 C 61 % 1017,1 hPa 0,0 l/m 3,4 kts (2 Bft) N 355 5,2 kts (2 Bft)
25.08.2019 18:20 24,9 C 23,3 C 61 % 1017,1 hPa 0,0 l/m 0,9 kts (1 Bft) N 355 3,1 kts (2 Bft)
25.08.2019 18:19 24,9 C 23,3 C 61 % 1017,1 hPa 0,0 l/m 3,0 kts (2 Bft) N 355 4,2 kts (2 Bft)
25.08.2019 18:18 24,9 C 23,3 C 61 % 1017,1 hPa 0,0 l/m 2,5 kts (1 Bft) N 355 5,2 kts (2 Bft)
25.08.2019 18:17 24,9 C 23,3 C 60 % 1017,1 hPa 0,0 l/m 3,2 kts (2 Bft) N 355 5,2 kts (2 Bft)
25.08.2019 18:16 24,9 C 23,3 C 60 % 1017,1 hPa 0,0 l/m 4,1 kts (2 Bft) N 360 5,2 kts (2 Bft)
25.08.2019 18:15 24,9 C 23,3 C 60 % 1017,1 hPa 0,0 l/m 3,6 kts (2 Bft) N 360 5,2 kts (2 Bft)
25.08.2019 18:14 24,9 C 23,3 C 60 % 1017,0 hPa 0,0 l/m 4,5 kts (2 Bft) N 355 7,3 kts (3 Bft)
25.08.2019 18:13 24,9 C 23,3 C 61 % 1017,0 hPa 0,0 l/m 2,8 kts (1 Bft) N-NW 338 4,2 kts (2 Bft)
25.08.2019 18:12 24,9 C 23,3 C 60 % 1017,0 hPa 0,0 l/m 2,9 kts (2 Bft) N-NW 333 6,3 kts (2 Bft)
25.08.2019 18:11 24,9 C 23,3 C 60 % 1017,0 hPa 0,0 l/m 3,8 kts (2 Bft) N 5 5,2 kts (2 Bft)
25.08.2019 18:10 24,9 C 23,3 C 60 % 1017,0 hPa 0,0 l/m 5,2 kts (2 Bft) N 5 7,3 kts (3 Bft)
25.08.2019 18:09 24,9 C 23,3 C 61 % 1016,9 hPa 0,0 l/m 4,5 kts (2 Bft) N 5 6,3 kts (2 Bft)
25.08.2019 18:08 24,9 C 23,3 C 61 % 1017,0 hPa 0,0 l/m 2,8 kts (1 Bft) N 5 6,3 kts (2 Bft)
25.08.2019 18:07 24,9 C 23,3 C 61 % 1016,9 hPa 0,0 l/m 3,8 kts (2 Bft) N 5 9,4 kts (3 Bft)
25.08.2019 18:06 24,8 C 23,3 C 61 % 1017,0 hPa 0,0 l/m 2,8 kts (1 Bft) N 5 6,3 kts (2 Bft)
25.08.2019 18:05 24,8 C 23,3 C 61 % 1016,9 hPa 0,0 l/m 0,5 kts (0 Bft) N 5 2,1 kts (1 Bft)
25.08.2019 18:04 24,8 C 23,3 C 61 % 1017,0 hPa 0,0 l/m 2,6 kts (1 Bft) N 5 5,2 kts (2 Bft)
25.08.2019 18:03 24,8 C 23,3 C 61 % 1016,9 hPa 0,0 l/m 2,4 kts (1 Bft) N 9 5,2 kts (2 Bft)
25.08.2019 18:02 24,7 C 23,3 C 62 % 1016,9 hPa 0,0 l/m 4,7 kts (2 Bft) N 5 7,3 kts (3 Bft)
25.08.2019 18:01 24,7 C 23,3 C 61 % 1016,9 hPa 0,0 l/m 4,3 kts (2 Bft) N 351 6,3 kts (2 Bft)
25.08.2019 18:00 24,7 C 23,3 C 62 % 1016,8 hPa 0,0 l/m 0,8 kts (1 Bft) N-NW 345 2,1 kts (1 Bft)
25.08.2019 17:59 24,7 C 23,3 C 62 % 1016,9 hPa 0,0 l/m 2,3 kts (1 Bft) N-NW 345 4,2 kts (2 Bft)
25.08.2019 17:58 24,7 C 23,3 C 62 % 1016,8 hPa 0,0 l/m 4,9 kts (2 Bft) N-NW 338 8,3 kts (3 Bft)
25.08.2019 17:57 24,7 C 23,3 C 62 % 1016,9 hPa 0,0 l/m 3,9 kts (2 Bft) N 5 5,2 kts (2 Bft)
25.08.2019 17:56 24,6 C 23,3 C 63 % 1016,9 hPa 0,0 l/m 3,8 kts (2 Bft) N 5 7,3 kts (3 Bft)
25.08.2019 17:55 24,6 C 23,3 C 63 % 1016,9 hPa 0,0 l/m 3,1 kts (2 Bft) N 5 5,2 kts (2 Bft)
25.08.2019 17:54 24,6 C 23,3 C 66 % 1016,9 hPa 0,0 l/m 5,7 kts (2 Bft) N-NO 18 9,4 kts (3 Bft)
25.08.2019 17:53 24,6 C 23,3 C 65 % 1016,9 hPa 0,0 l/m 1,8 kts (1 Bft) N-NW 340 4,2 kts (2 Bft)
25.08.2019 17:52 24,5 C 23,3 C 65 % 1016,8 hPa 0,0 l/m 3,7 kts (2 Bft) N-NW 340 5,2 kts (2 Bft)
25.08.2019 17:51 24,4 C 23,3 C 66 % 1016,8 hPa 0,0 l/m 2,2 kts (1 Bft) N-NW 339 5,2 kts (2 Bft)
25.08.2019 17:50 24,4 C 23,3 C 65 % 1016,8 hPa 0,0 l/m 3,0 kts (2 Bft) N-NW 330 6,3 kts (2 Bft)
25.08.2019 17:49 24,4 C 23,3 C 65 % 1016,8 hPa 0,0 l/m 1,9 kts (1 Bft) N-NW 332 4,2 kts (2 Bft)
25.08.2019 17:48 24,4 C 23,3 C 65 % 1016,8 hPa 0,0 l/m 3,2 kts (2 Bft) N-NW 336 5,2 kts (2 Bft)
25.08.2019 17:47 24,3 C 23,3 C 65 % 1016,8 hPa 0,0 l/m 3,3 kts (2 Bft) NW 321 6,3 kts (2 Bft)
25.08.2019 17:46 24,3 C 23,3 C 65 % 1016,8 hPa 0,0 l/m 3,4 kts (2 Bft) NW 323 6,3 kts (2 Bft)
25.08.2019 17:45 24,3 C 23,3 C 65 % 1016,8 hPa 0,0 l/m 5,6 kts (2 Bft) NW 306 8,3 kts (3 Bft)
25.08.2019 17:44 24,3 C 23,3 C 66 % 1016,8 hPa 0,0 l/m 3,7 kts (2 Bft) N-NW 336 6,3 kts (2 Bft)
25.08.2019 17:43 24,3 C 23,3 C 66 % 1016,8 hPa 0,0 l/m 1,8 kts (1 Bft) NW 304 4,2 kts (2 Bft)
25.08.2019 17:42 24,3 C 23,3 C 66 % 1016,8 hPa 0,0 l/m 3,6 kts (2 Bft) N-NW 328 6,3 kts (2 Bft)
25.08.2019 17:41 24,3 C 23,3 C 68 % 1016,8 hPa 0,0 l/m 3,2 kts (2 Bft) NW 310 7,3 kts (3 Bft)
25.08.2019 17:40 24,3 C 23,3 C 67 % 1016,8 hPa 0,0 l/m 2,5 kts (1 Bft) N-NW 330 6,3 kts (2 Bft)
25.08.2019 17:39 24,3 C 23,3 C 66 % 1016,8 hPa 0,0 l/m 2,6 kts (1 Bft) NW 326 7,3 kts (3 Bft)
25.08.2019 17:38 24,3 C 23,3 C 66 % 1016,7 hPa 0,0 l/m 4,2 kts (2 Bft) W-NW 294 7,3 kts (3 Bft)
25.08.2019 17:37 24,3 C 23,3 C 66 % 1016,7 hPa 0,0 l/m 6,1 kts (2 Bft) N 11 7,3 kts (3 Bft)
25.08.2019 17:36 24,4 C 22,8 C 66 % 1016,7 hPa 0,0 l/m 5,1 kts (2 Bft) W-NW 295 7,3 kts (3 Bft)
25.08.2019 17:35 24,4 C 22,8 C 66 % 1016,7 hPa 0,0 l/m 3,3 kts (2 Bft) NW 312 4,2 kts (2 Bft)
25.08.2019 17:34 24,5 C 22,8 C 66 % 1016,7 hPa 0,0 l/m 3,0 kts (2 Bft) N 355 6,3 kts (2 Bft)
25.08.2019 17:33 24,6 C 22,8 C 65 % 1016,7 hPa 0,0 l/m 6,2 kts (2 Bft) N 360 11,4 kts (4 Bft)
25.08.2019 17:32 24,6 C 22,8 C 64 % 1016,6 hPa 0,0 l/m 8,0 kts (3 Bft) N-NW 347 12,5 kts (4 Bft)
25.08.2019 17:31 24,7 C 22,8 C 63 % 1016,7 hPa 0,0 l/m 9,4 kts (3 Bft) N 5 12,5 kts (4 Bft)
25.08.2019 17:30 24,8 C 22,8 C 63 % 1016,7 hPa 0,0 l/m 7,7 kts (3 Bft) N 355 12,5 kts (4 Bft)
_ Min-Zeit 06:22 06:05 16:43 15:18 - 00:59 - - 00:59
Minimum _ 17,7 C 22,2 C 49 % 1015,4 hPa - 0,0 kts (0 Bft) - - 0,0 kts (0 Bft)
_ Max-Zeit 15:04 17:37 07:47 07:43 00:00 17:07 - - 17:07
Maximum _ 29,2 C 23,3 C 91 % 1019,4 hPa 0,0 l/m 19,8 kts
NW (5 Bft)
- - 29,2 kts
NW (7 Bft)
Durchschnitt _ 22,5 C 22,6 C 73 % 1018,0 hPa #0,0 l/m 1,9 kts (1 Bft) NW - 3,4 kts (2 Bft)